Time;durP1;ratioP1;P1;durP2;ratioP2;P2;SDS_P1;SDS_P2;PMS_P1;PMS_P2;Temp;Humidity;BMP_temperature;BMP_pressure;BME280_temperature;BME280_humidity;BME280_pressure;Samples;Min_cycle;Max_cycle;Signal;HPM_P1;HPM_P2
2021/12/21 00:00:43;;;;;;;11.40;5.50;;;0.00;99.90;;;;;;5035809;28;20678;-57
2021/12/21 00:03:10;;;;;;;13.87;7.03;;;0.00;99.90;;;;;;5036105;28;20210;-55
2021/12/21 00:05:39;;;;;;;16.33;7.30;;;0.00;99.90;;;;;;5035699;28;20321;-60
2021/12/21 00:08:08;;;;;;;13.97;7.20;;;0.10;99.90;;;;;;5035462;28;20711;-55
2021/12/21 00:10:35;;;;;;;15.07;6.77;;;0.10;99.90;;;;;;5035377;28;20678;-55
2021/12/21 00:13:09;;;;;;;16.07;7.57;;;0.10;99.90;;;;;;5035344;28;20631;-54
2021/12/21 00:15:48;;;;;;;17.23;8.30;;;0.10;99.90;;;;;;5035320;28;20709;-54
2021/12/21 00:18:24;;;;;;;12.63;6.27;;;0.10;99.90;;;;;;5035152;28;20257;-55
2021/12/21 00:21:00;;;;;;;10.27;6.27;;;0.10;99.90;;;;;;5035276;28;20213;-55
2021/12/21 00:23:33;;;;;;;13.37;7.70;;;0.10;99.90;;;;;;5035244;28;20201;-55
2021/12/21 00:26:02;;;;;;;18.03;8.53;;;0.00;99.90;;;;;;5035298;28;20317;-56
2021/12/21 00:28:33;;;;;;;18.73;8.87;;;0.00;99.90;;;;;;5035020;28;20280;-55
2021/12/21 00:31:00;;;;;;;12.67;7.47;;;0.00;99.90;;;;;;5035152;28;20314;-55
2021/12/21 00:33:27;;;;;;;10.37;6.43;;;-0.10;99.90;;;;;;5035065;28;20202;-55
2021/12/21 00:35:55;;;;;;;15.67;7.63;;;-0.10;99.90;;;;;;5034860;28;20234;-55
2021/12/21 00:38:22;;;;;;;14.97;8.63;;;-0.10;99.90;;;;;;5034739;28;20229;-55
2021/12/21 00:40:49;;;;;;;18.37;9.33;;;-0.20;99.90;;;;;;5035034;28;20202;-55
2021/12/21 00:43:15;;;;;;;15.63;8.93;;;-0.20;99.90;;;;;;5034978;28;20217;-55
2021/12/21 00:45:42;;;;;;;19.57;10.20;;;-0.20;99.90;;;;;;5034824;28;20230;-55
2021/12/21 00:48:09;;;;;;;15.33;7.63;;;-0.20;99.90;;;;;;5034532;28;20209;-55
2021/12/21 00:50:35;;;;;;;17.13;7.57;;;-0.30;99.90;;;;;;5034686;28;20213;-55
2021/12/21 00:53:05;;;;;;;18.80;8.80;;;-0.40;99.90;;;;;;5034848;28;20620;-55
2021/12/21 00:55:31;;;;;;;19.57;9.20;;;-0.40;99.90;;;;;;5034834;28;20364;-55
2021/12/21 00:57:58;;;;;;;16.57;7.83;;;-0.40;99.90;;;;;;5034399;28;20206;-55
2021/12/21 01:00:25;;;;;;;12.07;7.50;;;-0.50;99.90;;;;;;5034621;28;20259;-55
2021/12/21 01:02:52;;;;;;;16.27;7.33;;;-0.50;99.90;;;;;;5034553;28;20462;-55
2021/12/21 01:05:26;;;;;;;15.53;7.70;;;-0.60;99.90;;;;;;5034249;28;20234;-55
2021/12/21 01:07:56;;;;;;;18.27;8.03;;;-0.60;99.90;;;;;;5034588;28;20214;-55
2021/12/21 01:10:48;;;;;;;14.23;6.50;;;-0.60;99.90;;;;;;5034898;28;20214;-55
2021/12/21 01:13:32;;;;;;;12.20;6.57;;;-0.70;99.90;;;;;;5034311;28;20207;-55
2021/12/21 01:16:07;;;;;;;16.97;7.07;;;-0.60;99.90;;;;;;5034266;28;20240;-55
2021/12/21 01:18:38;;;;;;;16.90;6.57;;;-0.60;99.90;;;;;;5034217;28;20245;-56
2021/12/21 01:21:11;;;;;;;12.67;6.67;;;-0.50;99.90;;;;;;5034364;28;20224;-55
2021/12/21 01:23:57;;;;;;;11.33;6.50;;;-0.50;99.90;;;;;;5034171;28;20213;-55
2021/12/21 01:26:33;;;;;;;11.73;5.93;;;-0.50;99.90;;;;;;5034189;28;20226;-55
2021/12/21 01:29:07;;;;;;;12.97;6.03;;;-0.60;99.90;;;;;;5033958;28;20221;-55
2021/12/21 01:31:44;;;;;;;12.27;6.63;;;-0.60;99.90;;;;;;5034241;28;20212;-55
2021/12/21 01:34:23;;;;;;;10.77;6.10;;;-0.70;99.90;;;;;;5033929;28;20209;-55
2021/12/21 01:36:55;;;;;;;11.10;5.33;;;-0.70;99.90;;;;;;5033831;28;20226;-55
2021/12/21 01:39:52;;;;;;;11.97;5.70;;;-0.80;99.90;;;;;;5033705;28;20210;-55
2021/12/21 01:42:28;;;;;;;13.77;6.50;;;-0.80;99.90;;;;;;5033602;28;20210;-55
2021/12/21 01:50:24;;;;;;;10.77;5.97;;;-0.80;99.90;;;;;;5033786;28;20209;-55
2021/12/21 01:52:51;;;;;;;11.90;5.80;;;-1.00;99.90;;;;;;5033572;28;20213;-55
2021/12/21 01:55:18;;;;;;;10.63;5.80;;;-1.00;99.90;;;;;;5032850;28;20226;-55
2021/12/21 01:57:46;;;;;;;12.30;6.00;;;-0.90;99.90;;;;;;5033319;28;20583;-55
2021/12/21 02:00:14;;;;;;;10.23;5.70;;;-0.90;99.90;;;;;;5033351;28;20212;-55
2021/12/21 02:02:41;;;;;;;9.90;5.97;;;-0.80;99.90;;;;;;5033286;28;20249;-55
2021/12/21 02:05:08;;;;;;;11.67;5.37;;;-0.80;99.90;;;;;;5033304;28;20241;-55
2021/12/21 02:07:34;;;;;;;10.23;5.57;;;-0.80;99.90;;;;;;5033233;28;20202;-55
2021/12/21 02:10:01;;;;;;;14.67;5.33;;;-0.70;99.90;;;;;;5032916;28;20268;-55
2021/12/21 02:12:28;;;;;;;11.20;5.80;;;-0.80;99.90;;;;;;5033296;28;20210;-55
2021/12/21 02:14:58;;;;;;;13.67;5.43;;;-0.80;99.90;;;;;;5033325;28;20229;-55
2021/12/21 02:17:53;;;;;;;9.63;4.93;;;-0.90;99.90;;;;;;5033158;28;20253;-54
2021/12/21 02:20:36;;;;;;;10.10;6.00;;;-0.90;99.90;;;;;;5032978;28;20237;-55
2021/12/21 02:23:07;;;;;;;11.40;5.67;;;-0.90;99.90;;;;;;5033095;28;20296;-55
2021/12/21 02:25:57;;;;;;;13.37;6.53;;;-0.90;99.90;;;;;;5033344;28;20312;-55
2021/12/21 02:28:34;;;;;;;9.93;5.53;;;-0.90;99.90;;;;;;5032670;28;20214;-54
2021/12/21 02:31:01;;;;;;;11.50;5.57;;;-0.90;99.90;;;;;;5033097;28;20217;-55
2021/12/21 02:33:28;;;;;;;16.93;6.90;;;-0.90;99.90;;;;;;5033108;28;20205;-55
2021/12/21 02:35:57;;;;;;;11.17;6.07;;;-1.00;99.90;;;;;;5032666;28;20226;-55
2021/12/21 02:38:24;;;;;;;13.40;5.90;;;-1.00;99.90;;;;;;5033053;28;20217;-55
2021/12/21 02:40:51;;;;;;;13.53;6.17;;;-1.00;99.90;;;;;;5033554;28;20240;-55
2021/12/21 02:43:18;;;;;;;14.87;6.63;;;-1.00;99.90;;;;;;5032784;28;20207;-54
2021/12/21 02:45:44;;;;;;;12.23;5.80;;;-1.00;99.90;;;;;;5032716;28;20276;-55
2021/12/21 02:48:11;;;;;;;11.27;6.00;;;-1.00;99.90;;;;;;5032618;28;20252;-56
2021/12/21 02:50:39;;;;;;;14.27;7.00;;;-0.90;99.90;;;;;;5032779;28;20268;-54
2021/12/21 02:53:09;;;;;;;11.10;5.97;;;-0.90;99.90;;;;;;5032411;28;20265;-54
2021/12/21 02:55:36;;;;;;;12.63;6.40;;;-0.90;99.90;;;;;;5032202;28;20276;-54
2021/12/21 02:58:04;;;;;;;12.60;6.70;;;-0.90;99.90;;;;;;5032768;28;20234;-55
2021/12/21 03:00:32;;;;;;;13.67;6.40;;;-0.90;99.90;;;;;;5032536;28;20580;-55
2021/12/21 03:03:02;;;;;;;16.10;6.33;;;-1.00;99.90;;;;;;5032431;28;20240;-54
2021/12/21 03:05:30;;;;;;;14.20;6.63;;;-1.10;99.90;;;;;;5032270;28;20269;-54
2021/12/21 03:08:10;;;;;;;8.87;5.30;;;-1.10;99.90;;;;;;5031301;28;20678;-54
2021/12/21 03:10:46;;;;;;;9.00;5.30;;;-1.10;99.90;;;;;;5032418;28;20210;-54
2021/12/21 03:15:56;;;;;;;13.00;5.57;;;-1.10;99.90;;;;;;5032235;28;20225;-54
2021/12/21 03:18:23;;;;;;;10.13;5.30;;;-1.10;99.90;;;;;;5032557;28;20209;-54
2021/12/21 03:20:50;;;;;;;11.83;5.87;;;-1.20;99.90;;;;;;5032094;28;20229;-54
2021/12/21 03:23:16;;;;;;;13.77;6.10;;;-1.30;99.90;;;;;;5032239;28;20202;-54
2021/12/21 03:25:44;;;;;;;10.07;5.27;;;-1.30;99.90;;;;;;5031960;28;20237;-54
2021/12/21 03:28:11;;;;;;;11.77;5.37;;;-1.40;99.90;;;;;;5032003;28;20211;-54
2021/12/21 03:30:38;;;;;;;10.47;5.50;;;-1.60;99.90;;;;;;5032104;28;20202;-55
2021/12/21 03:33:04;;;;;;;13.13;5.93;;;-1.70;99.90;;;;;;5031954;28;20209;-55
2021/12/21 03:35:31;;;;;;;12.27;5.30;;;-1.80;99.90;;;;;;5031807;28;20571;-54
2021/12/21 03:37:58;;;;;;;9.47;5.53;;;-1.90;99.90;;;;;;5032064;28;20222;-54
2021/12/21 03:40:25;;;;;;;10.77;5.03;;;-1.90;99.90;;;;;;5031717;28;20210;-54
2021/12/21 03:42:53;;;;;;;11.57;5.03;;;-1.90;99.90;;;;;;5031757;28;20666;-54
2021/12/21 03:45:20;;;;;;;12.53;5.43;;;-1.90;99.90;;;;;;5031953;28;20582;-54
2021/12/21 03:47:47;;;;;;;14.10;5.80;;;-2.00;99.90;;;;;;5032255;28;20205;-54
2021/12/21 03:50:18;;;;;;;10.07;5.17;;;-2.10;99.90;;;;;;5031477;28;20217;-54
2021/12/21 03:52:45;;;;;;;8.83;5.20;;;-2.00;99.90;;;;;;5031869;28;20206;-57
2021/12/21 03:55:12;;;;;;;8.67;5.00;;;-2.10;99.90;;;;;;5031693;28;20222;-54
2021/12/21 03:57:39;;;;;;;8.40;4.47;;;-2.10;99.90;;;;;;5031815;28;20523;-55
2021/12/21 04:00:11;;;;;;;8.67;5.03;;;-2.10;99.90;;;;;;5031425;28;20207;-54
2021/12/21 04:02:38;;;;;;;12.87;5.17;;;-2.20;99.90;;;;;;5031926;28;20241;-55
2021/12/21 04:05:07;;;;;;;10.57;4.90;;;-2.30;99.90;;;;;;5031529;28;20237;-55
2021/12/21 04:07:33;;;;;;;10.27;4.77;;;-2.30;99.90;;;;;;5031563;28;20683;-55
2021/12/21 04:10:00;;;;;;;9.53;4.90;;;-2.30;99.90;;;;;;5031475;28;20256;-55
2021/12/21 04:12:27;;;;;;;10.97;4.87;;;-2.30;99.90;;;;;;5031597;28;20622;-55
2021/12/21 04:14:56;;;;;;;14.50;5.30;;;-2.30;99.90;;;;;;5031454;28;20238;-55
2021/12/21 04:17:25;;;;;;;10.13;4.83;;;-2.20;99.90;;;;;;5031982;28;20256;-55
2021/12/21 04:19:52;;;;;;;7.60;4.37;;;-2.20;99.90;;;;;;5035076;28;20580;-55
2021/12/21 04:22:19;;;;;;;12.00;5.37;;;-2.10;99.90;;;;;;5035139;28;20736;-55
2021/12/21 04:24:47;;;;;;;10.93;5.10;;;-2.20;99.90;;;;;;5035020;28;20218;-55
2021/12/21 04:27:13;;;;;;;9.50;4.63;;;-2.20;99.90;;;;;;5035065;28;20256;-55
2021/12/21 04:29:40;;;;;;;9.83;4.73;;;-2.20;99.90;;;;;;5034868;28;20607;-55
2021/12/21 04:32:07;;;;;;;10.20;4.40;;;-2.30;99.90;;;;;;5035372;28;20214;-55
2021/12/21 04:34:36;;;;;;;13.60;5.27;;;-2.30;99.90;;;;;;5035066;28;20272;-55
2021/12/21 04:37:03;;;;;;;11.23;5.03;;;-2.30;99.90;;;;;;5034974;28;20234;-56
2021/12/21 04:39:32;;;;;;;11.87;4.90;;;-2.30;99.90;;;;;;5034654;28;20218;-55
2021/12/21 04:41:59;;;;;;;10.23;4.77;;;-2.30;99.90;;;;;;5034710;28;20213;-55
2021/12/21 04:44:25;;;;;;;15.10;5.30;;;-2.40;99.90;;;;;;5034742;28;20565;-55
2021/12/21 04:46:52;;;;;;;10.33;4.67;;;-2.40;99.90;;;;;;5034948;28;20424;-55
2021/12/21 04:49:19;;;;;;;9.60;5.17;;;-2.40;99.90;;;;;;5034726;28;20209;-55
2021/12/21 04:51:47;;;;;;;9.37;4.80;;;-2.50;99.90;;;;;;5034879;28;20221;-55
2021/12/21 04:54:13;;;;;;;8.47;4.30;;;-2.60;99.90;;;;;;5034832;28;20202;-54
2021/12/21 04:56:40;;;;;;;9.17;4.60;;;-2.60;99.90;;;;;;5034345;28;20789;-55
2021/12/21 04:59:07;;;;;;;11.13;4.57;;;-2.60;99.90;;;;;;5034596;28;20233;-59
2021/12/21 05:01:34;;;;;;;8.50;4.57;;;-2.70;99.90;;;;;;5034964;28;20214;-56
2021/12/21 05:04:00;;;;;;;9.33;4.90;;;-2.70;99.90;;;;;;5034467;28;20215;-55
2021/12/21 05:06:27;;;;;;;10.17;4.73;;;-2.60;99.90;;;;;;5034669;28;20772;-55
2021/12/21 05:09:07;;;;;;;13.30;4.93;;;-2.60;99.90;;;;;;5034058;28;20580;-55
2021/12/21 05:11:35;;;;;;;12.60;5.07;;;-2.60;99.90;;;;;;5034603;28;20259;-55
2021/12/21 05:14:05;;;;;;;9.43;4.87;;;-2.60;99.90;;;;;;5034426;28;20213;-55
2021/12/21 05:16:33;;;;;;;8.30;4.53;;;-2.70;99.90;;;;;;5034483;28;20284;-55
2021/12/21 05:18:59;;;;;;;10.13;5.33;;;-2.70;99.90;;;;;;5034093;28;20234;-55
2021/12/21 05:21:26;;;;;;;8.90;5.03;;;-2.70;99.90;;;;;;5034124;28;20210;-55
2021/12/21 05:23:53;;;;;;;9.70;5.30;;;-2.70;99.90;;;;;;5034377;28;20213;-55
2021/12/21 05:26:21;;;;;;;10.37;5.30;;;-2.70;99.90;;;;;;5034100;28;20230;-55
2021/12/21 05:28:47;;;;;;;9.27;5.10;;;-2.60;99.90;;;;;;5033862;28;20248;-56
2021/12/21 05:31:14;;;;;;;8.90;5.63;;;-2.60;99.90;;;;;;5033152;28;20210;-55
2021/12/21 05:33:41;;;;;;;8.27;5.53;;;-2.50;99.90;;;;;;5034031;28;20215;-55
2021/12/21 05:36:07;;;;;;;12.80;6.07;;;-2.50;99.90;;;;;;5033731;28;20313;-55
2021/12/21 05:38:35;;;;;;;12.43;5.37;;;-2.50;99.90;;;;;;5033693;28;20222;-56
2021/12/21 05:41:06;;;;;;;9.40;4.90;;;-2.50;99.90;;;;;;5033939;28;20206;-55
2021/12/21 05:43:34;;;;;;;9.10;5.00;;;-2.50;99.90;;;;;;5034026;28;20206;-55
2021/12/21 05:46:01;;;;;;;10.80;6.00;;;-2.50;99.90;;;;;;5033677;28;20600;-55
2021/12/21 05:48:28;;;;;;;9.27;5.43;;;-2.50;99.90;;;;;;5033518;28;20214;-55
2021/12/21 05:50:55;;;;;;;11.67;5.67;;;-2.60;99.90;;;;;;5033547;28;20214;-55
2021/12/21 05:53:22;;;;;;;13.60;5.30;;;-2.60;99.90;;;;;;5033744;28;20616;-55
2021/12/21 05:55:49;;;;;;;10.90;4.90;;;-2.60;99.90;;;;;;5033732;28;20231;-55
2021/12/21 05:58:15;;;;;;;10.23;5.17;;;-2.70;99.90;;;;;;5033460;28;20566;-55
2021/12/21 06:00:43;;;;;;;8.70;5.10;;;-2.70;99.90;;;;;;5033216;28;20213;-55
2021/12/21 06:03:10;;;;;;;9.50;5.20;;;-2.70;99.90;;;;;;5033307;28;20217;-56
2021/12/21 06:05:37;;;;;;;9.00;5.13;;;-2.70;99.90;;;;;;5033598;28;20229;-56
2021/12/21 06:08:05;;;;;;;7.40;4.63;;;-2.70;99.90;;;;;;5033366;28;20582;-56
2021/12/21 06:10:35;;;;;;;9.17;4.60;;;-2.70;99.90;;;;;;5033375;28;20203;-56
2021/12/21 06:16:19;;;;;;;7.53;4.87;;;-2.70;99.90;;;;;;5017406;28;20278;-55
2021/12/21 06:27:13;;;;;;;13.40;5.77;;;-2.80;99.90;;;;;;5033206;28;20612;-56
2021/12/21 06:29:40;;;;;;;10.90;6.03;;;-2.90;99.90;;;;;;5032701;28;20218;-56
2021/12/21 06:32:10;;;;;;;11.90;6.33;;;-2.90;99.90;;;;;;5032692;28;20210;-56
2021/12/21 06:34:37;;;;;;;10.07;5.80;;;-2.90;99.90;;;;;;5032681;28;20233;-56
2021/12/21 06:37:05;;;;;;;10.83;6.20;;;-2.80;99.90;;;;;;5032582;28;20207;-56
2021/12/21 06:39:33;;;;;;;13.63;5.67;;;-2.80;99.90;;;;;;5032667;28;20610;-56
2021/12/21 06:42:01;;;;;;;10.40;6.07;;;-2.80;99.90;;;;;;5032694;28;20207;-56
2021/12/21 06:44:28;;;;;;;9.63;5.47;;;-2.90;99.90;;;;;;5032522;28;20670;-56
2021/12/21 06:47:09;;;;;;;10.47;6.03;;;-2.90;99.90;;;;;;5032507;28;20210;-56
2021/12/21 06:52:22;;;;;;;12.03;5.67;;;-2.80;99.90;;;;;;5032485;28;20209;-56
2021/12/21 06:54:49;;;;;;;10.37;5.30;;;-2.80;99.90;;;;;;5032348;28;20230;-56
2021/12/21 06:57:15;;;;;;;10.03;5.60;;;-2.80;99.90;;;;;;5032228;28;20210;-56
2021/12/21 06:59:42;;;;;;;9.33;5.03;;;-2.80;99.90;;;;;;5032291;28;20206;-55
2021/12/21 07:02:10;;;;;;;11.83;5.47;;;-2.90;99.90;;;;;;5032463;28;20268;-55
2021/12/21 07:04:38;;;;;;;14.07;5.40;;;-2.80;99.90;;;;;;5032642;28;20240;-56
2021/12/21 07:07:06;;;;;;;14.27;5.37;;;-2.90;99.90;;;;;;5032220;28;20202;-57
2021/12/21 07:09:38;;;;;;;10.57;5.60;;;-2.90;99.90;;;;;;5031999;28;20202;-57
2021/12/21 07:12:24;;;;;;;10.57;5.60;;;-2.90;99.90;;;;;;5031887;28;20206;-57
2021/12/21 07:20:17;;;;;;;14.20;6.20;;;-3.00;99.90;;;;;;5019131;28;20205;-57
2021/12/21 07:22:44;;;;;;;12.70;6.73;;;-2.90;99.90;;;;;;5032254;28;20260;-56
2021/12/21 07:25:11;;;;;;;12.67;6.70;;;-3.00;99.90;;;;;;5031941;28;20226;-56
2021/12/21 07:27:38;;;;;;;12.83;6.80;;;-2.90;99.90;;;;;;5032104;28;20272;-56
2021/12/21 07:30:07;;;;;;;13.10;6.90;;;-2.90;99.90;;;;;;5031627;28;20206;-56
2021/12/21 07:32:34;;;;;;;10.80;7.47;;;-2.90;99.90;;;;;;5031442;28;20213;-56
2021/12/21 07:35:00;;;;;;;12.00;6.73;;;-2.80;99.90;;;;;;5031912;28;20724;-56
2021/12/21 07:37:28;;;;;;;12.27;7.43;;;-2.70;99.90;;;;;;5031832;28;20206;-56
2021/12/21 07:39:55;;;;;;;14.70;6.60;;;-2.70;99.90;;;;;;5031835;28;20214;-56
2021/12/21 07:42:23;;;;;;;13.57;7.50;;;-2.70;99.90;;;;;;5031926;28;20206;-56
2021/12/21 07:44:50;;;;;;;12.53;7.10;;;-2.70;99.90;;;;;;5031795;28;20722;-56
2021/12/21 07:47:18;;;;;;;13.27;6.77;;;-2.70;99.90;;;;;;5031940;28;20268;-56
2021/12/21 07:49:45;;;;;;;11.70;7.07;;;-2.70;99.90;;;;;;5031443;28;20202;-56
2021/12/21 07:52:13;;;;;;;13.90;6.80;;;-2.60;99.90;;;;;;5032055;28;20214;-56
2021/12/21 07:54:41;;;;;;;13.43;7.20;;;-2.60;99.90;;;;;;5035360;28;20267;-56
2021/12/21 07:57:08;;;;;;;15.77;8.20;;;-2.50;99.90;;;;;;5035854;28;20210;-55
2021/12/21 07:59:35;;;;;;;12.33;7.63;;;-2.40;99.90;;;;;;5035582;28;20288;-56
2021/12/21 08:02:02;;;;;;;13.60;6.70;;;-2.30;99.90;;;;;;5035454;28;20206;-56
2021/12/21 08:04:30;;;;;;;14.60;7.37;;;-2.30;99.90;;;;;;5035155;28;20589;-55
2021/12/21 08:07:03;;;;;;;14.63;7.23;;;-2.20;99.90;;;;;;5035878;28;20206;-55
2021/12/21 08:09:36;;;;;;;15.73;8.67;;;-2.10;99.90;;;;;;5035334;28;20301;-55
2021/12/21 08:12:13;;;;;;;14.27;7.80;;;-2.00;99.90;;;;;;5035436;28;20256;-56
2021/12/21 08:14:40;;;;;;;13.87;7.23;;;-2.00;99.90;;;;;;5035699;28;20261;-56
2021/12/21 08:17:07;;;;;;;11.20;7.30;;;-1.90;99.90;;;;;;5035477;28;20206;-56
2021/12/21 08:19:34;;;;;;;13.60;7.73;;;-1.70;99.90;;;;;;5035102;28;20269;-55
2021/12/21 08:22:00;;;;;;;14.13;8.23;;;-1.50;99.90;;;;;;5035255;28;20206;-57
2021/12/21 08:24:27;;;;;;;16.53;9.37;;;-1.60;99.90;;;;;;5035340;28;20202;-56
2021/12/21 08:26:54;;;;;;;17.43;8.50;;;-1.50;99.90;;;;;;5035120;28;20226;-56
2021/12/21 08:29:22;;;;;;;15.23;8.87;;;-1.50;99.90;;;;;;5034926;28;20575;-56
2021/12/21 08:31:48;;;;;;;17.40;8.47;;;-1.40;99.90;;;;;;5035218;28;20276;-56
2021/12/21 08:34:15;;;;;;;17.73;8.87;;;-1.40;99.90;;;;;;5035138;28;20217;-56
2021/12/21 08:36:42;;;;;;;13.70;8.00;;;-1.40;99.90;;;;;;5034880;28;20309;-56
2021/12/21 08:39:10;;;;;;;12.37;7.50;;;-1.30;99.90;;;;;;5035320;28;20350;-56
2021/12/21 08:41:41;;;;;;;27.00;16.57;;;-1.20;99.90;;;;;;5034766;28;20265;-57
2021/12/21 08:44:09;;;;;;;16.70;10.20;;;-1.10;99.90;;;;;;5035316;28;20240;-56
2021/12/21 08:46:39;;;;;;;19.73;14.47;;;-1.10;99.90;;;;;;5034696;28;20226;-57
2021/12/21 08:49:06;;;;;;;15.73;9.00;;;-0.90;99.90;;;;;;5034789;28;20670;-56
2021/12/21 08:51:34;;;;;;;15.23;8.93;;;-0.90;99.90;;;;;;5035302;28;20214;-57
2021/12/21 08:54:00;;;;;;;17.00;9.50;;;-0.90;99.90;;;;;;5034686;28;20237;-56
2021/12/21 08:56:27;;;;;;;16.13;9.27;;;-0.80;99.90;;;;;;5034767;28;20230;-54
2021/12/21 08:58:54;;;;;;;16.60;8.80;;;-0.60;99.90;;;;;;5034710;28;20229;-56
2021/12/21 09:01:20;;;;;;;13.90;8.50;;;-0.50;99.90;;;;;;5034994;28;20209;-56
2021/12/21 09:03:49;;;;;;;14.10;8.20;;;-0.40;99.90;;;;;;5034201;28;20202;-56
2021/12/21 09:06:16;;;;;;;13.73;8.03;;;-0.30;99.90;;;;;;5033325;28;20241;-55
2021/12/21 09:08:43;;;;;;;14.07;7.20;;;-0.20;99.90;;;;;;5033801;28;20237;-53
2021/12/21 09:11:10;;;;;;;11.47;7.03;;;-0.20;99.90;;;;;;5032698;28;20210;-53
2021/12/21 09:13:36;;;;;;;11.83;7.20;;;-0.10;99.90;;;;;;5033874;28;20213;-53
2021/12/21 09:16:03;;;;;;;12.00;6.80;;;-0.10;99.90;;;;;;5035134;28;20729;-55
2021/12/21 09:18:30;;;;;;;11.63;6.73;;;0.10;99.90;;;;;;5034978;28;20296;-53
2021/12/21 09:20:58;;;;;;;14.03;6.70;;;0.20;99.90;;;;;;5035172;28;20256;-57
2021/12/21 09:23:27;;;;;;;10.93;7.23;;;0.30;99.90;;;;;;5035191;28;20615;-52
2021/12/21 09:25:54;;;;;;;9.90;6.87;;;0.30;99.90;;;;;;5034479;28;20593;-57
2021/12/21 09:28:20;;;;;;;12.87;6.60;;;0.50;99.90;;;;;;5034346;28;20284;-54
2021/12/21 09:30:47;;;;;;;11.93;7.17;;;0.60;99.90;;;;;;5033779;28;20206;-53
2021/12/21 09:33:14;;;;;;;11.17;6.83;;;0.80;99.90;;;;;;5033922;28;20210;-54
2021/12/21 09:35:41;;;;;;;10.43;7.17;;;0.90;99.90;;;;;;5034230;28;20233;-55
2021/12/21 09:38:09;;;;;;;14.50;8.60;;;1.10;99.90;;;;;;5034185;28;20229;-55
2021/12/21 09:40:39;;;;;;;18.37;8.13;;;1.20;99.90;;;;;;5034024;28;20206;-54
2021/12/21 09:43:08;;;;;;;10.43;7.10;;;1.30;99.90;;;;;;5034035;28;20249;-62
2021/12/21 09:45:36;;;;;;;9.17;6.27;;;1.50;99.90;;;;;;5033268;28;20284;-58
2021/12/21 09:48:02;;;;;;;12.73;7.03;;;1.70;99.90;;;;;;5025641;28;20203;-58
2021/12/21 09:50:29;;;;;;;8.20;5.73;;;1.80;99.90;;;;;;5033095;28;20229;-57
2021/12/21 09:52:57;;;;;;;9.37;6.10;;;1.90;99.90;;;;;;5033431;28;20612;-56
2021/12/21 09:55:25;;;;;;;13.20;6.23;;;2.00;99.90;;;;;;5033469;28;20662;-57
2021/12/21 09:57:53;;;;;;;13.87;6.80;;;2.20;99.90;;;;;;5033417;28;20268;-58
2021/12/21 10:00:22;;;;;;;12.63;5.87;;;2.20;99.90;;;;;;5032778;28;20222;-56
2021/12/21 10:02:49;;;;;;;10.50;5.73;;;2.30;99.90;;;;;;5033363;28;20264;-56
2021/12/21 10:05:20;;;;;;;9.40;5.77;;;2.50;99.90;;;;;;5033130;28;20234;-60
2021/12/21 10:07:56;;;;;;;9.83;5.30;;;2.70;99.90;;;;;;5032964;28;20264;-56
2021/12/21 10:10:25;;;;;;;9.73;5.33;;;2.80;99.90;;;;;;5032981;28;20212;-57
2021/12/21 10:12:52;;;;;;;9.13;5.03;;;2.80;99.90;;;;;;5032992;28;20622;-58
2021/12/21 10:15:21;;;;;;;8.63;4.70;;;2.80;99.90;;;;;;5032499;28;20230;-57
2021/12/21 10:17:49;;;;;;;9.40;4.90;;;2.90;99.90;;;;;;5033012;28;20296;-57
2021/12/21 10:20:31;;;;;;;8.27;4.10;;;3.00;99.90;;;;;;5032134;28;20641;-58
2021/12/21 10:22:58;;;;;;;6.80;3.77;;;3.00;99.90;;;;;;5032962;28;20210;-56
2021/12/21 10:25:26;;;;;;;6.03;3.70;;;3.20;99.90;;;;;;5032934;28;20231;-57
2021/12/21 10:27:53;;;;;;;5.00;3.77;;;3.30;99.90;;;;;;5032536;28;20210;-57
2021/12/21 10:30:20;;;;;;;7.83;4.07;;;3.30;99.90;;;;;;5032789;28;20202;-55
2021/12/21 10:32:52;;;;;;;9.43;4.37;;;3.30;99.90;;;;;;5032534;28;20678;-57
2021/12/21 10:35:19;;;;;;;9.67;4.90;;;3.50;99.90;;;;;;5032022;28;20775;-60
2021/12/21 10:37:50;;;;;;;9.23;4.80;;;3.50;99.90;;;;;;5032592;28;20202;-58
2021/12/21 10:40:23;;;;;;;8.97;4.47;;;3.60;99.90;;;;;;5032038;28;20694;-59
2021/12/21 10:42:55;;;;;;;8.57;4.13;;;3.60;99.90;;;;;;5032793;28;20221;-58
2021/12/21 10:45:28;;;;;;;7.70;4.10;;;3.70;99.90;;;;;;5032689;28;20226;-57
2021/12/21 10:47:55;;;;;;;7.33;4.20;;;3.70;99.90;;;;;;5032426;28;20211;-57
2021/12/21 10:50:23;;;;;;;6.87;4.10;;;3.60;99.90;;;;;;5032407;28;20205;-55
2021/12/21 10:52:51;;;;;;;8.53;4.10;;;3.70;99.90;;;;;;5032103;28;20732;-57
2021/12/21 10:55:27;;;;;;;8.67;3.73;;;3.90;99.90;;;;;;5032421;28;20602;-55
2021/12/21 10:58:08;;;;;;;5.23;3.37;;;3.90;99.90;;;;;;5032254;28;20209;-59
2021/12/21 11:00:37;;;;;;;7.50;4.60;;;3.90;99.90;;;;;;5031865;28;20705;-56
2021/12/21 11:03:04;;;;;;;7.13;3.60;;;4.00;99.90;;;;;;5032226;28;20207;-59
2021/12/21 11:05:31;;;;;;;8.13;3.83;;;4.10;99.90;;;;;;5068968;22;20232;-59
2021/12/21 11:08:06;;;;;;;5.53;3.70;;;4.20;99.90;;;;;;5071902;28;20208;-54
2021/12/21 11:10:35;;;;;;;6.63;3.60;;;4.30;99.90;;;;;;5071700;28;20201;-54
2021/12/21 11:13:07;;;;;;;6.53;3.40;;;4.40;99.90;;;;;;5071892;28;20211;-54
2021/12/21 11:15:37;;;;;;;4.20;3.17;;;4.50;99.90;;;;;;5071830;28;20263;-57
2021/12/21 11:18:07;;;;;;;5.27;3.10;;;4.50;99.90;;;;;;5072028;28;20219;-54
2021/12/21 11:20:35;;;;;;;9.93;7.10;;;4.60;99.90;;;;;;5071671;28;20231;-57
2021/12/21 11:23:03;;;;;;;4.27;3.13;;;4.60;99.90;;;;;;5071840;28;20212;-55
2021/12/21 11:25:30;;;;;;;5.30;3.33;;;4.70;99.90;;;;;;5071636;28;20589;-54
2021/12/21 11:28:00;;;;;;;8.80;3.83;;;4.60;99.90;;;;;;5070798;28;20213;-55
2021/12/21 11:30:29;;;;;;;6.77;3.83;;;4.50;99.90;;;;;;5071477;28;20246;-55
2021/12/21 11:32:57;;;;;;;6.03;3.17;;;4.40;99.90;;;;;;5071976;28;20220;-55
2021/12/21 11:38:13;;;;;;;5.90;3.40;;;4.30;99.90;;;;;;5071708;28;20203;-57
2021/12/21 11:40:41;;;;;;;6.57;3.07;;;4.50;99.90;;;;;;5070842;28;20271;-57
2021/12/21 11:43:17;;;;;;;4.87;3.40;;;4.50;99.90;;;;;;5072017;28;20278;-56
2021/12/21 11:45:54;;;;;;;7.10;3.63;;;4.60;99.90;;;;;;5071733;28;20228;-56
2021/12/21 11:48:32;;;;;;;5.83;3.40;;;4.30;99.90;;;;;;5070767;28;20556;-56
2021/12/21 11:51:03;;;;;;;5.53;3.40;;;4.40;99.90;;;;;;5071127;28;20230;-60
2021/12/21 11:53:30;;;;;;;8.53;3.67;;;4.60;99.90;;;;;;5071612;28;20216;-61
2021/12/21 11:55:56;;;;;;;8.20;4.80;;;4.80;99.90;;;;;;5071370;28;20225;-57
2021/12/21 11:58:25;;;;;;;5.87;3.40;;;5.10;99.90;;;;;;5071422;28;20216;-59
2021/12/21 12:00:56;;;;;;;5.37;3.37;;;5.40;99.90;;;;;;5071004;28;20231;-57
2021/12/21 12:03:25;;;;;;;5.57;3.33;;;5.60;99.90;;;;;;5071423;28;20672;-60
2021/12/21 12:05:55;;;;;;;7.10;3.13;;;5.40;99.90;;;;;;5070943;28;20247;-58
2021/12/21 12:08:22;;;;;;;6.50;3.27;;;5.30;99.90;;;;;;5071584;28;20205;-59
2021/12/21 12:10:53;;;;;;;7.53;3.80;;;5.40;99.90;;;;;;5071147;28;20201;-60
2021/12/21 12:13:27;;;;;;;4.43;3.03;;;5.60;99.90;;;;;;5071243;28;20242;-59
2021/12/21 12:15:57;;;;;;;4.33;3.20;;;5.70;99.90;;;;;;5071015;28;20235;-58
2021/12/21 12:18:27;;;;;;;4.50;3.10;;;5.70;99.90;;;;;;5068868;28;20231;-56
2021/12/21 12:20:54;;;;;;;4.97;3.20;;;5.60;99.90;;;;;;5070832;28;20700;-55
2021/12/21 12:23:22;;;;;;;9.33;5.83;;;5.70;99.90;;;;;;5071158;28;20212;-55
2021/12/21 12:25:55;;;;;;;5.50;3.67;;;5.90;99.90;;;;;;5071053;28;20221;-55
2021/12/21 12:28:24;;;;;;;8.43;3.30;;;6.10;99.90;;;;;;5071196;28;20291;-55
2021/12/21 12:30:52;;;;;;;6.63;3.07;;;6.20;99.90;;;;;;5070897;28;20590;-63
2021/12/21 12:33:20;;;;;;;6.57;3.10;;;6.20;99.90;;;;;;5071541;28;20204;-57
2021/12/21 12:35:47;;;;;;;5.43;2.73;;;6.40;99.90;;;;;;5071361;28;20229;-57
2021/12/21 12:38:23;;;;;;;8.50;3.13;;;6.40;99.90;;;;;;5071183;28;20672;-55
2021/12/21 12:40:52;;;;;;;7.10;3.33;;;6.50;99.90;;;;;;5074393;28;20730;-55
2021/12/21 12:43:22;;;;;;;6.67;3.10;;;6.60;99.90;;;;;;5074619;28;20213;-56
2021/12/21 12:45:52;;;;;;;12.97;7.70;;;6.60;99.90;;;;;;5074985;28;20306;-56
2021/12/21 12:48:26;;;;;;;5.37;3.20;;;6.60;99.90;;;;;;5074530;28;20676;-57
2021/12/21 12:50:54;;;;;;;3.93;2.73;;;6.70;99.90;;;;;;5074633;28;20208;-56
2021/12/21 12:53:22;;;;;;;5.90;2.90;;;6.70;99.90;;;;;;5075038;28;20212;-59
2021/12/21 12:55:54;;;;;;;5.90;3.10;;;6.70;99.90;;;;;;5074509;28;20585;-58
2021/12/21 12:58:23;;;;;;;4.60;2.77;;;6.60;99.90;;;;;;5074626;28;20213;-58
2021/12/21 13:00:56;;;;;;;6.30;2.93;;;6.40;99.90;;;;;;5074070;28;20224;-58
2021/12/21 13:03:33;;;;;;;4.53;2.73;;;6.30;99.90;;;;;;5074326;28;20216;-58
2021/12/21 13:06:01;;;;;;;5.67;3.17;;;6.00;99.90;;;;;;5074088;28;20236;-59
2021/12/21 13:08:29;;;;;;;6.10;3.47;;;5.90;99.90;;;;;;5074364;28;20205;-57
2021/12/21 13:10:59;;;;;;;5.37;2.70;;;5.80;99.90;;;;;;5073925;28;20619;-59
2021/12/21 13:13:33;;;;;;;5.77;3.00;;;5.80;99.90;;;;;;5074523;28;20311;-59
2021/12/21 13:16:05;;;;;;;5.97;3.83;;;5.60;99.90;;;;;;5074116;28;20228;-59
2021/12/21 13:18:33;;;;;;;4.27;2.73;;;5.40;99.90;;;;;;5073909;28;20668;-57
2021/12/21 13:21:00;;;;;;;6.27;3.03;;;5.30;99.90;;;;;;5074178;28;20430;-58
2021/12/21 13:23:29;;;;;;;4.20;2.47;;;5.30;99.90;;;;;;5074445;28;20301;-58